Time;durP1;ratioP1;P1;durP2;ratioP2;P2;SDS_P1;SDS_P2;PMS_P1;PMS_P2;Temp;Humidity;BMP_temperature;BMP_pressure;BME280_temperature;BME280_humidity;BME280_pressure;Samples;Min_cycle;Max_cycle;Signal;HPM_P1;HPM_P2
2021/06/12 00:00:19;;;;;;;5.40;2.85;;;18.60;90.80;;;;;;5064293;28;20024;-77
2021/06/12 00:02:45;;;;;;;4.87;2.90;;;18.60;90.90;;;;;;5070636;28;20238;-77
2021/06/12 00:05:11;;;;;;;7.40;2.70;;;18.60;90.90;;;;;;5068230;28;20253;-78
2021/06/12 00:07:36;;;;;;;5.97;3.20;;;18.50;91.00;;;;;;5068391;28;20012;-78
2021/06/12 00:10:10;;;;;;;6.68;3.28;;;18.50;91.10;;;;;;5068522;28;20008;-78
2021/06/12 00:12:36;;;;;;;5.68;2.72;;;18.50;91.00;;;;;;5088458;28;20012;-78
2021/06/12 00:15:05;;;;;;;5.50;2.95;;;18.40;91.00;;;;;;5055326;28;20012;-77
2021/06/12 00:17:31;;;;;;;4.10;2.53;;;18.40;90.90;;;;;;5070205;28;20012;-78
2021/06/12 00:19:56;;;;;;;6.18;2.75;;;18.50;90.90;;;;;;5070127;28;20176;-78
2021/06/12 00:22:22;;;;;;;4.72;2.75;;;18.40;90.80;;;;;;5070635;28;20303;-77
2021/06/12 00:24:47;;;;;;;7.43;3.20;;;18.40;90.90;;;;;;5089278;28;20008;-77
2021/06/12 00:27:13;;;;;;;4.53;2.45;;;18.30;91.10;;;;;;5093821;28;20012;-78
2021/06/12 00:29:39;;;;;;;5.15;2.90;;;18.30;91.20;;;;;;5079193;28;20000;-78
2021/06/12 00:32:05;;;;;;;7.85;2.92;;;18.30;91.20;;;;;;5079289;28;20037;-78
2021/06/12 00:34:30;;;;;;;3.97;2.38;;;18.30;91.10;;;;;;5096249;28;20054;-78
2021/06/12 00:36:56;;;;;;;6.55;3.00;;;18.20;91.00;;;;;;5079995;28;20025;-78
2021/06/12 00:39:21;;;;;;;4.30;2.13;;;18.20;90.80;;;;;;5080269;28;20044;-78
2021/06/12 00:41:47;;;;;;;6.28;2.60;;;18.20;90.80;;;;;;5078398;28;20033;-78
2021/06/12 00:44:13;;;;;;;6.80;2.55;;;18.20;90.80;;;;;;5079920;28;20115;-78
2021/06/12 00:46:38;;;;;;;4.50;2.40;;;18.10;90.70;;;;;;5063456;28;20087;-77
2021/06/12 00:49:04;;;;;;;5.70;2.58;;;18.10;90.80;;;;;;5096498;28;20040;-77
2021/06/12 00:51:30;;;;;;;5.68;2.67;;;18.10;90.60;;;;;;5077642;28;20019;-78
2021/06/12 00:53:55;;;;;;;4.65;2.40;;;18.10;90.50;;;;;;5079674;28;20016;-78
2021/06/12 00:56:21;;;;;;;5.65;2.25;;;18.00;90.50;;;;;;5080233;28;20032;-78
2021/06/12 00:58:48;;;;;;;8.30;2.30;;;18.00;90.50;;;;;;5079996;28;20012;-78
2021/06/12 01:01:15;;;;;;;4.22;1.85;;;18.00;90.40;;;;;;5080206;28;20029;-77
2021/06/12 01:03:41;;;;;;;3.92;2.30;;;18.00;90.40;;;;;;5060921;28;20032;-78
2021/06/12 01:06:10;;;;;;;4.78;2.00;;;17.90;90.20;;;;;;5096267;28;20024;-77
2021/06/12 01:08:36;;;;;;;6.07;2.50;;;17.90;90.50;;;;;;5063289;28;20036;-78
2021/06/12 01:11:03;;;;;;;6.40;2.58;;;17.90;90.30;;;;;;5062244;28;20028;-78
2021/06/12 01:13:56;;;;;;;4.72;2.10;;;17.80;90.30;;;;;;5079941;28;20001;-78
2021/06/12 01:16:45;;;;;;;6.43;2.33;;;17.80;90.20;;;;;;5096839;28;20035;-77
2021/06/12 01:19:43;;;;;;;8.40;2.92;;;17.80;90.50;;;;;;5096759;28;20023;-78
2021/06/12 01:22:14;;;;;;;6.70;2.30;;;17.80;90.50;;;;;;5095824;28;20036;-77
2021/06/12 01:24:55;;;;;;;5.10;2.65;;;17.80;90.50;;;;;;5096844;28;20016;-77
2021/06/12 01:27:37;;;;;;;7.07;2.80;;;17.70;90.60;;;;;;5082022;28;20024;-77
2021/06/12 01:30:19;;;;;;;;;;;17.70;90.50;;;;;;5074091;28;20017;-76
2021/06/12 01:32:50;;;;;;;5.18;2.10;;;17.70;90.30;;;;;;5066422;28;20162;-77
2021/06/12 01:35:23;;;;;;;5.80;2.00;;;17.70;90.20;;;;;;5083811;28;20119;-76
2021/06/12 01:37:48;;;;;;;3.95;1.90;;;17.70;90.30;;;;;;5067134;28;20012;-76
2021/06/12 01:40:14;;;;;;;4.82;1.85;;;17.60;89.80;;;;;;5083349;28;20024;-77
2021/06/12 01:42:42;;;;;;;4.03;2.10;;;17.60;89.80;;;;;;5048177;28;20029;-76
2021/06/12 01:45:08;;;;;;;5.15;2.35;;;17.60;90.00;;;;;;5074120;28;20008;-76
2021/06/12 01:47:33;;;;;;;4.85;2.25;;;17.50;90.10;;;;;;5081676;28;20020;-77
2021/06/12 01:50:01;;;;;;;5.20;2.40;;;17.50;90.10;;;;;;5095566;28;20016;-76
2021/06/12 01:52:27;;;;;;;4.85;1.90;;;17.50;90.30;;;;;;5099678;28;20033;-76
2021/06/12 01:54:53;;;;;;;5.15;2.13;;;17.50;90.40;;;;;;5078238;28;20019;-77
2021/06/12 01:57:18;;;;;;;5.63;1.92;;;17.40;90.30;;;;;;5074586;28;20005;-76
2021/06/12 01:59:44;;;;;;;3.80;1.90;;;17.40;90.40;;;;;;5053283;28;20019;-76
2021/06/12 02:02:09;;;;;;;3.78;1.80;;;17.40;90.60;;;;;;5069318;28;20037;-76
2021/06/12 02:04:38;;;;;;;5.10;1.83;;;17.40;90.70;;;;;;5069873;28;20061;-77
2021/06/12 02:07:04;;;;;;;5.15;1.80;;;17.30;90.50;;;;;;5086341;28;20012;-77
2021/06/12 02:09:31;;;;;;;4.60;2.08;;;17.30;90.30;;;;;;5086991;28;20001;-76
2021/06/12 02:11:57;;;;;;;4.90;1.92;;;17.30;89.70;;;;;;5086740;28;20019;-77
2021/06/12 02:14:22;;;;;;;7.30;2.20;;;17.30;89.70;;;;;;5056148;28;20011;-77
2021/06/12 02:16:48;;;;;;;4.35;2.08;;;17.20;89.10;;;;;;5060012;28;20325;-78
2021/06/12 02:19:14;;;;;;;8.80;2.67;;;17.20;89.20;;;;;;5070147;28;20065;-76
2021/06/12 02:21:39;;;;;;;6.18;2.40;;;17.20;89.40;;;;;;5053974;28;20191;-77
2021/06/12 02:24:05;;;;;;;4.32;1.80;;;17.20;89.60;;;;;;5067882;28;20225;-77
2021/06/12 02:26:32;;;;;;;4.75;1.90;;;17.20;89.50;;;;;;5066927;28;20013;-77
2021/06/12 02:28:58;;;;;;;4.47;2.13;;;17.10;89.80;;;;;;5057746;28;20282;-78
2021/06/12 02:31:28;;;;;;;7.88;2.25;;;17.10;89.40;;;;;;5082071;28;20067;-79
2021/06/12 02:33:54;;;;;;;5.57;2.27;;;17.00;89.20;;;;;;5074491;28;20032;-78
2021/06/12 02:36:20;;;;;;;5.90;1.77;;;17.00;89.70;;;;;;5082830;28;20036;-79
2021/06/12 02:38:45;;;;;;;5.72;2.03;;;17.00;90.00;;;;;;5083842;28;20043;-78
2021/06/12 02:41:12;;;;;;;5.13;2.13;;;17.00;89.30;;;;;;5082707;28;20261;-79
2021/06/12 02:43:37;;;;;;;5.65;2.30;;;17.00;89.50;;;;;;5071653;28;20047;-78
2021/06/12 02:46:08;;;;;;;4.97;2.00;;;16.90;89.70;;;;;;5069428;28;20076;-78
2021/06/12 02:48:34;;;;;;;4.60;2.10;;;16.90;90.00;;;;;;5070568;28;20012;-78
2021/06/12 02:51:00;;;;;;;6.47;2.78;;;16.90;90.30;;;;;;5053750;28;20038;-78
2021/06/12 02:53:28;;;;;;;6.38;2.38;;;16.90;90.20;;;;;;5052997;28;20016;-77
2021/06/12 02:55:55;;;;;;;5.20;2.00;;;16.90;90.10;;;;;;5071221;28;20038;-78
2021/06/12 02:58:22;;;;;;;4.80;2.10;;;16.90;90.10;;;;;;5087384;28;20043;-78
2021/06/12 03:00:48;;;;;;;5.55;2.00;;;16.90;89.90;;;;;;5071532;28;20023;-78
2021/06/12 03:03:14;;;;;;;4.20;2.08;;;16.90;90.10;;;;;;5090226;28;20083;-78
2021/06/12 03:05:41;;;;;;;6.88;2.40;;;16.90;90.30;;;;;;5052605;28;20213;-77
2021/06/12 03:08:07;;;;;;;4.13;1.95;;;16.90;90.30;;;;;;5051267;28;20052;-78
2021/06/12 03:10:33;;;;;;;5.70;1.88;;;16.90;90.50;;;;;;5067249;28;20009;-78
2021/06/12 03:13:03;;;;;;;7.65;2.60;;;16.90;90.50;;;;;;5050549;28;20036;-77
2021/06/12 03:15:30;;;;;;;7.15;2.55;;;16.90;90.30;;;;;;5054788;28;20373;-78
2021/06/12 03:17:56;;;;;;;4.82;1.83;;;16.80;90.50;;;;;;5071484;28;20075;-78
2021/06/12 03:20:21;;;;;;;3.20;1.88;;;16.80;90.50;;;;;;5071548;28;20274;-78
2021/06/12 03:22:48;;;;;;;8.15;2.17;;;16.80;90.40;;;;;;5070776;28;20020;-78
2021/06/12 03:25:18;;;;;;;5.20;2.00;;;16.80;90.20;;;;;;5087183;28;20371;-78
2021/06/12 03:27:44;;;;;;;4.90;1.77;;;16.80;90.30;;;;;;5081045;28;20162;-78
2021/06/12 03:30:10;;;;;;;4.50;1.85;;;16.80;90.20;;;;;;5070048;28;20038;-78
2021/06/12 03:32:35;;;;;;;4.88;2.10;;;16.80;90.30;;;;;;5070224;28;20032;-78
2021/06/12 03:35:01;;;;;;;4.85;1.80;;;16.80;90.10;;;;;;5087300;28;20020;-78
2021/06/12 03:37:27;;;;;;;5.30;2.55;;;16.80;90.50;;;;;;5071428;28;20054;-78
2021/06/12 03:39:53;;;;;;;5.90;1.60;;;16.80;90.50;;;;;;5071007;28;20055;-78
2021/06/12 03:42:18;;;;;;;6.22;2.15;;;16.80;90.30;;;;;;5070774;28;20020;-78
2021/06/12 03:44:45;;;;;;;6.03;1.88;;;16.80;90.10;;;;;;5053916;28;20039;-78
2021/06/12 03:47:10;;;;;;;5.22;2.17;;;16.70;89.70;;;;;;5054456;28;20013;-78
2021/06/12 03:49:36;;;;;;;7.47;2.10;;;16.70;90.00;;;;;;5070549;28;20015;-78
2021/06/12 03:52:02;;;;;;;8.25;2.30;;;16.70;89.70;;;;;;5087353;28;20009;-78
2021/06/12 03:54:29;;;;;;;6.53;2.05;;;16.70;90.20;;;;;;5068496;28;20032;-78
2021/06/12 03:56:55;;;;;;;4.45;1.70;;;16.70;90.20;;;;;;5084306;28;20035;-78
2021/06/12 03:59:22;;;;;;;5.78;2.50;;;16.80;90.10;;;;;;5052836;28;20012;-78
2021/06/12 04:01:48;;;;;;;5.45;1.80;;;16.80;89.80;;;;;;5051803;28;20040;-78
2021/06/12 04:04:13;;;;;;;5.32;2.05;;;16.80;89.80;;;;;;5067613;28;20020;-78
2021/06/12 04:06:39;;;;;;;4.50;1.83;;;16.80;90.00;;;;;;5083800;28;20005;-78
2021/06/12 04:09:05;;;;;;;4.32;1.63;;;16.80;90.10;;;;;;5051032;28;20050;-77
2021/06/12 04:11:30;;;;;;;4.68;1.50;;;16.80;90.10;;;;;;5051569;28;20008;-78
2021/06/12 04:13:56;;;;;;;4.63;1.58;;;16.80;90.00;;;;;;5068102;28;20016;-78
2021/06/12 04:16:21;;;;;;;4.18;1.85;;;16.90;89.70;;;;;;5068154;28;20317;-78
2021/06/12 04:18:47;;;;;;;4.97;1.90;;;16.80;89.60;;;;;;5068650;28;20012;-78
2021/06/12 04:21:13;;;;;;;3.55;1.05;;;16.80;89.40;;;;;;5084720;28;20027;-78
2021/06/12 04:23:38;;;;;;;4.65;1.85;;;16.90;89.50;;;;;;5067287;28;20024;-78
2021/06/12 04:26:04;;;;;;;4.63;1.60;;;17.00;89.20;;;;;;5062807;28;20011;-78
2021/06/12 04:28:29;;;;;;;5.20;1.45;;;17.00;88.50;;;;;;5047692;28;20016;-78
2021/06/12 04:30:55;;;;;;;4.47;1.63;;;17.10;88.30;;;;;;5049389;28;20013;-77
2021/06/12 04:33:21;;;;;;;4.38;1.23;;;17.20;87.00;;;;;;5068386;28;20009;-78
2021/06/12 04:35:47;;;;;;;3.08;1.15;;;17.30;87.10;;;;;;5079324;28;20044;-78
2021/06/12 04:38:13;;;;;;;2.80;1.00;;;17.40;86.90;;;;;;5055448;28;20319;-78
2021/06/12 04:40:38;;;;;;;5.88;1.77;;;17.40;85.70;;;;;;5050645;28;20229;-78
2021/06/12 04:43:05;;;;;;;6.85;1.67;;;17.50;84.30;;;;;;5083690;28;20326;-77
2021/06/12 04:45:31;;;;;;;3.03;1.13;;;17.50;84.40;;;;;;5083570;28;20009;-78
2021/06/12 04:47:56;;;;;;;2.28;0.98;;;17.60;84.70;;;;;;5083508;28;20039;-78
2021/06/12 04:50:22;;;;;;;3.28;1.33;;;17.80;83.70;;;;;;5083836;28;20074;-78
2021/06/12 04:52:48;;;;;;;3.00;1.15;;;17.90;83.00;;;;;;5066662;28;20228;-77
2021/06/12 04:55:13;;;;;;;2.30;1.20;;;17.90;83.10;;;;;;5066255;28;20294;-78
2021/06/12 04:57:39;;;;;;;3.65;1.30;;;17.90;83.30;;;;;;5050288;28;20008;-77
2021/06/12 05:00:07;;;;;;;3.03;1.42;;;17.80;82.60;;;;;;5049890;28;20021;-77
2021/06/12 05:02:33;;;;;;;4.22;1.33;;;17.80;82.60;;;;;;5084007;28;20024;-78
2021/06/12 05:04:59;;;;;;;6.00;1.92;;;17.80;82.50;;;;;;5084044;28;20005;-78
2021/06/12 05:07:24;;;;;;;8.13;1.70;;;17.70;82.00;;;;;;5066992;28;20012;-78
2021/06/12 05:09:50;;;;;;;7.07;1.90;;;17.60;82.30;;;;;;5083654;28;20688;-78
2021/06/12 05:12:15;;;;;;;3.22;1.45;;;17.40;81.20;;;;;;5083540;28;20085;-78
2021/06/12 05:14:44;;;;;;;4.00;1.27;;;17.40;81.70;;;;;;5066303;28;20080;-78
2021/06/12 05:17:12;;;;;;;4.28;1.65;;;17.50;80.80;;;;;;5050408;28;20012;-78
2021/06/12 05:19:37;;;;;;;5.28;1.55;;;17.60;80.60;;;;;;5069701;28;20040;-77
2021/06/12 05:22:03;;;;;;;8.10;1.92;;;17.60;80.90;;;;;;5087202;28;20028;-77
2021/06/12 05:24:29;;;;;;;8.63;2.30;;;17.50;79.90;;;;;;5086913;28;20337;-77
2021/06/12 05:26:55;;;;;;;4.40;1.67;;;17.50;80.50;;;;;;5070900;28;20013;-77
2021/06/12 05:29:20;;;;;;;4.95;1.75;;;17.60;80.10;;;;;;5069061;28;20016;-77
2021/06/12 05:31:46;;;;;;;4.13;1.50;;;17.50;79.90;;;;;;5070521;28;20068;-78
2021/06/12 05:34:11;;;;;;;7.20;1.90;;;17.60;80.30;;;;;;5067213;28;20019;-77
2021/06/12 05:36:37;;;;;;;6.97;2.60;;;17.50;81.20;;;;;;5089647;28;20016;-77
2021/06/12 05:39:05;;;;;;;3.88;1.60;;;17.30;80.30;;;;;;5055725;28;20032;-77
2021/06/12 05:41:30;;;;;;;2.47;1.27;;;17.40;80.20;;;;;;5072996;28;20027;-76
2021/06/12 05:43:56;;;;;;;4.28;1.50;;;17.50;80.50;;;;;;5073259;28;20322;-78
2021/06/12 05:46:21;;;;;;;2.47;1.20;;;17.50;77.70;;;;;;5073025;28;20062;-77
2021/06/12 05:48:47;;;;;;;8.30;1.52;;;17.60;79.20;;;;;;5060395;28;20077;-78
2021/06/12 05:51:13;;;;;;;5.07;1.65;;;17.60;78.90;;;;;;5078321;28;20079;-78
2021/06/12 05:53:38;;;;;;;9.13;1.70;;;17.60;78.20;;;;;;5074938;28;20012;-76
2021/06/12 05:56:04;;;;;;;4.82;2.25;;;17.50;79.40;;;;;;5071114;28;20024;-77
2021/06/12 05:58:31;;;;;;;5.85;1.90;;;17.40;76.20;;;;;;5091359;28;20016;-77
2021/06/12 06:00:57;;;;;;;2.90;0.90;;;17.50;76.60;;;;;;5072887;28;20024;-78
2021/06/12 06:03:23;;;;;;;5.78;1.40;;;17.70;77.40;;;;;;5072894;28;20028;-76
2021/06/12 06:05:48;;;;;;;5.28;1.30;;;17.90;77.40;;;;;;5081402;28;20020;-77
2021/06/12 06:08:14;;;;;;;2.55;0.90;;;18.10;76.30;;;;;;5053231;28;20131;-77
2021/06/12 06:10:40;;;;;;;3.53;0.93;;;18.90;76.60;;;;;;5052852;28;20009;-77
2021/06/12 06:13:05;;;;;;;5.30;1.13;;;19.80;72.10;;;;;;5077212;28;20013;-77
2021/06/12 06:15:31;;;;;;;5.40;1.50;;;20.20;69.20;;;;;;5087211;28;20035;-77
2021/06/12 06:17:57;;;;;;;3.05;1.10;;;20.30;67.00;;;;;;5070224;28;20008;-78
2021/06/12 06:20:22;;;;;;;2.47;1.02;;;20.40;65.30;;;;;;5053668;28;20013;-77
2021/06/12 06:22:48;;;;;;;2.42;0.80;;;19.80;66.50;;;;;;5070734;28;20020;-78
2021/06/12 06:25:14;;;;;;;4.13;1.13;;;19.60;68.40;;;;;;5052959;28;20023;-77
2021/06/12 06:27:39;;;;;;;2.80;1.33;;;19.70;67.10;;;;;;5070233;28;20005;-77
2021/06/12 06:30:06;;;;;;;2.22;0.90;;;20.30;64.30;;;;;;5070803;28;20039;-77
2021/06/12 06:32:32;;;;;;;8.07;1.83;;;20.70;62.80;;;;;;5069729;28;20023;-77
2021/06/12 06:34:57;;;;;;;5.35;1.17;;;20.60;60.10;;;;;;5086028;28;20008;-77
2021/06/12 06:37:23;;;;;;;4.22;1.13;;;20.50;60.00;;;;;;5069518;28;20038;-78
2021/06/12 06:39:48;;;;;;;3.17;0.80;;;20.80;60.50;;;;;;5069533;28;20044;-77
2021/06/12 06:42:14;;;;;;;4.10;1.42;;;21.10;59.50;;;;;;5049397;28;20020;-78
2021/06/12 06:44:40;;;;;;;3.65;1.00;;;20.90;58.30;;;;;;5066672;28;20005;-78
2021/06/12 06:47:06;;;;;;;3.58;1.10;;;20.90;58.90;;;;;;5078323;28;20016;-78
2021/06/12 06:49:31;;;;;;;2.95;1.00;;;21.00;59.60;;;;;;5086321;28;20009;-78
2021/06/12 06:51:57;;;;;;;3.38;1.30;;;21.40;58.20;;;;;;5086311;28;20005;-78
2021/06/12 06:54:23;;;;;;;2.03;0.90;;;21.20;56.40;;;;;;5086566;28;20009;-77
2021/06/12 06:56:48;;;;;;;2.67;1.00;;;21.40;57.40;;;;;;5086518;28;20073;-77
2021/06/12 06:59:15;;;;;;;6.05;1.15;;;21.50;56.80;;;;;;5088892;28;20012;-77
2021/06/12 07:01:41;;;;;;;3.83;1.00;;;21.60;56.30;;;;;;5057588;28;20000;-76
2021/06/12 07:04:07;;;;;;;2.78;0.85;;;21.40;56.10;;;;;;5072830;28;20028;-77
2021/06/12 07:06:33;;;;;;;3.30;0.90;;;21.20;55.70;;;;;;5073033;28;20012;-76
2021/06/12 07:08:58;;;;;;;3.10;1.00;;;21.20;55.40;;;;;;5073316;28;20005;-77
2021/06/12 07:11:24;;;;;;;2.33;0.90;;;21.20;55.70;;;;;;5072390;28;20008;-78
2021/06/12 07:13:49;;;;;;;3.38;1.10;;;21.40;56.50;;;;;;5088042;28;20016;-78
2021/06/12 07:16:15;;;;;;;2.65;1.20;;;21.50;56.70;;;;;;5087578;28;20021;-78
2021/06/12 07:18:40;;;;;;;3.88;1.38;;;21.60;56.60;;;;;;5088303;28;20013;-77
2021/06/12 07:21:06;;;;;;;2.78;1.02;;;21.50;56.10;;;;;;5070914;28;20013;-77
2021/06/12 07:23:32;;;;;;;3.15;1.02;;;21.60;57.30;;;;;;5071043;28;20033;-77
2021/06/12 07:25:57;;;;;;;4.78;1.05;;;21.80;56.30;;;;;;5067136;28;20004;-77
2021/06/12 07:28:23;;;;;;;5.30;1.35;;;22.10;55.30;;;;;;5084608;28;20013;-77
2021/06/12 07:30:49;;;;;;;2.97;1.00;;;21.70;56.00;;;;;;5070795;28;20023;-77
2021/06/12 07:33:14;;;;;;;2.60;1.02;;;21.80;56.10;;;;;;5086889;28;20015;-76
2021/06/12 07:35:40;;;;;;;3.30;0.95;;;22.00;56.50;;;;;;5070327;28;20017;-77
2021/06/12 07:38:06;;;;;;;6.07;1.65;;;22.00;56.10;;;;;;5070396;28;20019;-77
2021/06/12 07:40:32;;;;;;;3.67;1.10;;;21.90;55.80;;;;;;5069914;28;20008;-77
2021/06/12 07:42:57;;;;;;;5.07;1.35;;;22.00;56.00;;;;;;5085736;28;20333;-78
2021/06/12 07:45:23;;;;;;;4.20;1.60;;;22.20;55.30;;;;;;5068920;28;20008;-78
2021/06/12 07:47:49;;;;;;;2.78;1.02;;;22.00;55.50;;;;;;5068815;28;20083;-77
2021/06/12 07:50:15;;;;;;;6.03;1.38;;;22.20;55.70;;;;;;5070958;28;20037;-77
2021/06/12 07:52:40;;;;;;;3.97;1.30;;;22.50;55.40;;;;;;5088252;28;20244;-78
2021/06/12 07:55:06;;;;;;;3.72;1.30;;;22.70;55.00;;;;;;5086624;28;20009;-78
2021/06/12 07:57:32;;;;;;;5.40;1.50;;;22.20;54.10;;;;;;5051572;28;20012;-78
2021/06/12 07:59:57;;;;;;;5.18;1.95;;;21.80;54.50;;;;;;5068221;28;20037;-78
2021/06/12 08:02:24;;;;;;;3.50;1.40;;;21.40;55.70;;;;;;5067402;28;20088;-78
2021/06/12 08:04:50;;;;;;;4.78;1.60;;;21.10;58.30;;;;;;5084642;28;20302;-79
2021/06/12 08:07:16;;;;;;;7.30;2.10;;;21.10;59.10;;;;;;5067112;28;20070;-79
2021/06/12 08:09:42;;;;;;;7.65;1.80;;;20.80;60.00;;;;;;5051554;28;20302;-77
2021/06/12 08:12:08;;;;;;;4.38;1.70;;;20.70;58.60;;;;;;5067816;28;20070;-78
2021/06/12 08:14:33;;;;;;;4.03;1.60;;;20.40;58.80;;;;;;5084529;28;20046;-77
2021/06/12 08:16:59;;;;;;;5.13;2.20;;;20.20;58.40;;;;;;5064440;28;20047;-78
2021/06/12 08:19:24;;;;;;;7.32;2.00;;;20.20;61.40;;;;;;5080630;28;20009;-78
2021/06/12 08:21:50;;;;;;;6.63;1.88;;;20.40;60.20;;;;;;5064131;28;20084;-77
2021/06/12 08:24:16;;;;;;;6.05;1.55;;;20.10;60.00;;;;;;5080844;28;20084;-78
2021/06/12 08:26:41;;;;;;;7.18;1.88;;;20.40;59.40;;;;;;5078909;28;20016;-78
2021/06/12 08:29:08;;;;;;;5.50;1.63;;;20.70;60.10;;;;;;5081849;28;20012;-78
2021/06/12 08:31:34;;;;;;;8.18;1.90;;;20.50;60.00;;;;;;5065636;28;20021;-77
2021/06/12 08:34:00;;;;;;;7.57;2.03;;;20.40;59.50;;;;;;5067548;28;20080;-78
2021/06/12 08:36:26;;;;;;;5.30;1.77;;;20.10;60.00;;;;;;5067831;28;20020;-76
2021/06/12 08:38:51;;;;;;;5.57;2.08;;;20.10;62.30;;;;;;5065045;28;20041;-77
2021/06/12 08:41:17;;;;;;;6.45;2.08;;;19.80;62.90;;;;;;5081544;28;20027;-77
2021/06/12 08:43:42;;;;;;;6.18;2.10;;;19.60;59.80;;;;;;5081037;28;20025;-77
2021/06/12 08:46:08;;;;;;;5.72;2.00;;;19.80;62.60;;;;;;5062268;28;20027;-77
2021/06/12 08:48:34;;;;;;;7.93;2.28;;;20.00;62.90;;;;;;5066285;28;20053;-76
2021/06/12 08:50:59;;;;;;;9.52;2.42;;;19.60;64.90;;;;;;5066268;28;20032;-77
2021/06/12 08:53:25;;;;;;;4.93;1.40;;;19.50;63.60;;;;;;5082369;28;20063;-77
2021/06/12 08:55:51;;;;;;;9.38;2.22;;;19.90;63.90;;;;;;5066672;28;20012;-77
2021/06/12 08:58:16;;;;;;;6.72;2.17;;;20.00;61.30;;;;;;5066919;28;20076;-77
2021/06/12 09:00:42;;;;;;;9.13;1.90;;;19.70;60.90;;;;;;5050131;28;20211;-77
2021/06/12 09:03:13;;;;;;;7.65;2.30;;;19.50;62.20;;;;;;5066773;28;20025;-76
2021/06/12 09:05:42;;;;;;;8.95;2.53;;;19.60;62.30;;;;;;5084447;28;20004;-77
2021/06/12 09:08:10;;;;;;;7.72;2.20;;;19.60;62.70;;;;;;5083607;28;20173;-76
2021/06/12 09:10:47;;;;;;;5.68;2.30;;;19.90;60.70;;;;;;5067942;28;20031;-78
2021/06/12 09:13:13;;;;;;;6.72;2.33;;;19.90;59.50;;;;;;5051641;28;20379;-77
2021/06/12 09:15:38;;;;;;;6.60;1.67;;;20.10;60.50;;;;;;5068385;28;20083;-76
2021/06/12 09:18:04;;;;;;;6.45;2.10;;;20.70;60.10;;;;;;5086554;28;20066;-77
2021/06/12 09:20:30;;;;;;;5.38;2.05;;;20.40;59.70;;;;;;5053333;28;20020;-76
2021/06/12 09:23:36;;;;;;;8.98;2.15;;;20.20;60.40;;;;;;5086402;28;20027;-77
2021/06/12 09:26:02;;;;;;;3.65;1.48;;;20.50;60.70;;;;;;5058983;28;20346;-76
2021/06/12 09:28:27;;;;;;;6.65;2.15;;;20.90;59.70;;;;;;5063480;28;20109;-76
2021/06/12 09:30:53;;;;;;;6.25;1.70;;;20.60;59.70;;;;;;5045736;28;20080;-76
2021/06/12 09:33:34;;;;;;;6.75;1.90;;;20.60;60.80;;;;;;5031166;28;20072;-77
2021/06/12 09:36:05;;;;;;;8.40;2.40;;;19.90;60.70;;;;;;5038594;28;20020;-77
2021/06/12 09:38:32;;;;;;;;;;;19.30;64.30;;;;;;5049889;28;20104;-78
2021/06/12 09:40:58;;;;;;;9.38;2.45;;;19.20;64.80;;;;;;5066755;28;20190;-76
2021/06/12 09:43:31;;;;;;;6.18;2.17;;;19.30;58.80;;;;;;5066920;28;20111;-78
2021/06/12 09:45:56;;;;;;;8.23;2.08;;;19.40;58.90;;;;;;5067044;28;20009;-77
2021/06/12 09:48:23;;;;;;;6.53;2.08;;;19.60;59.50;;;;;;5056164;28;20089;-77
2021/06/12 09:50:49;;;;;;;6.82;2.20;;;19.40;62.50;;;;;;5030715;28;20020;-76
2021/06/12 09:53:18;;;;;;;6.47;2.30;;;19.50;61.70;;;;;;5031379;28;20040;-77
2021/06/12 09:55:44;;;;;;;7.57;2.13;;;19.60;58.60;;;;;;5033552;28;20052;-77
2021/06/12 09:58:10;;;;;;;5.13;2.28;;;19.50;59.10;;;;;;5051311;28;20066;-78
2021/06/12 10:00:43;;;;;;;6.95;2.55;;;19.80;58.80;;;;;;5066861;28;20067;-78
2021/06/12 10:03:19;;;;;;;6.65;2.22;;;19.70;57.70;;;;;;5085328;28;20088;-78
2021/06/12 10:05:45;;;;;;;7.63;2.30;;;19.70;58.80;;;;;;5070993;28;20012;-77
2021/06/12 10:08:13;;;;;;;5.43;2.10;;;19.40;59.30;;;;;;5052953;28;20016;-77
2021/06/12 10:10:39;;;;;;;3.30;1.77;;;19.60;60.20;;;;;;5068767;28;20009;-77
2021/06/12 10:13:05;;;;;;;5.63;2.05;;;19.90;59.00;;;;;;5068432;28;20012;-78
2021/06/12 10:15:31;;;;;;;6.18;2.28;;;19.70;58.60;;;;;;5068791;28;20322;-79
2021/06/12 10:17:57;;;;;;;6.60;2.17;;;19.50;59.30;;;;;;5041135;28;20017;-80
2021/06/12 10:20:23;;;;;;;8.52;2.53;;;19.60;59.30;;;;;;5088241;28;20039;-78
2021/06/12 10:22:51;;;;;;;6.03;2.88;;;19.60;58.50;;;;;;5070871;28;20020;-76
2021/06/12 10:25:17;;;;;;;5.97;2.47;;;19.00;60.60;;;;;;5070511;28;20088;-76
2021/06/12 10:27:43;;;;;;;6.53;2.90;;;19.10;59.60;;;;;;5069421;28;20016;-78
2021/06/12 10:30:10;;;;;;;6.38;2.72;;;19.00;62.20;;;;;;5053045;28;20272;-77
2021/06/12 10:32:35;;;;;;;7.95;2.70;;;18.50;59.90;;;;;;5069686;28;20336;-77
2021/06/12 10:35:03;;;;;;;10.65;2.90;;;18.10;62.10;;;;;;5086608;28;20072;-77
2021/06/12 10:37:49;;;;;;;5.43;2.80;;;18.10;63.80;;;;;;5070224;28;20012;-76
2021/06/12 10:40:15;;;;;;;9.60;3.13;;;18.20;63.80;;;;;;5087320;28;20052;-78
2021/06/12 10:42:40;;;;;;;7.70;2.80;;;17.80;62.60;;;;;;5055746;28;20061;-77
2021/06/12 10:45:11;;;;;;;8.43;3.05;;;17.60;62.80;;;;;;5053184;28;20008;-77
2021/06/12 10:47:46;;;;;;;8.65;3.40;;;17.60;64.20;;;;;;5070120;28;20004;-79
2021/06/12 10:50:24;;;;;;;5.97;2.70;;;17.60;65.80;;;;;;5053807;28;20032;-78
2021/06/12 10:52:50;;;;;;;7.43;2.80;;;17.70;65.10;;;;;;5086858;28;20031;-79
2021/06/12 10:55:45;;;;;;;5.38;2.53;;;17.90;63.00;;;;;;5072979;28;20000;-78
2021/06/12 10:58:40;;;;;;;7.88;2.53;;;18.40;59.70;;;;;;5070468;28;20207;-77
2021/06/12 11:01:06;;;;;;;6.05;2.90;;;18.90;58.30;;;;;;5095182;28;20326;-78
2021/06/12 11:04:01;;;;;;;10.05;2.83;;;19.20;56.60;;;;;;5087343;28;20016;-77
2021/06/12 11:06:34;;;;;;;6.20;2.60;;;18.70;57.50;;;;;;5086662;28;20008;-77
2021/06/12 11:09:18;;;;;;;5.88;2.20;;;18.40;59.30;;;;;;5069416;28;20032;-76
2021/06/12 11:11:44;;;;;;;5.75;2.20;;;18.50;59.50;;;;;;5065792;28;20019;-77
2021/06/12 11:14:22;;;;;;;9.48;2.65;;;18.60;59.30;;;;;;5066824;28;20017;-77
2021/06/12 11:17:07;;;;;;;12.73;2.75;;;18.60;60.10;;;;;;5067029;28;20009;-77
2021/06/12 11:19:33;;;;;;;6.60;2.47;;;18.80;58.70;;;;;;5076773;28;20015;-76
2021/06/12 11:22:24;;;;;;;5.47;2.28;;;18.40;57.80;;;;;;5071019;28;20004;-77
2021/06/12 11:24:57;;;;;;;4.93;2.30;;;17.90;58.40;;;;;;5088756;28;20011;-76
2021/06/12 11:27:36;;;;;;;8.90;2.67;;;17.30;60.50;;;;;;5050060;28;20072;-77
2021/06/12 11:30:20;;;;;;;9.68;2.92;;;17.00;64.50;;;;;;5078516;28;20001;-77
2021/06/12 11:32:46;;;;;;;5.68;2.80;;;17.00;65.60;;;;;;5083860;28;20016;-77
2021/06/12 11:35:13;;;;;;;6.80;2.17;;;16.90;64.50;;;;;;5066545;28;20013;-77
2021/06/12 11:37:53;;;;;;;4.88;2.20;;;17.30;66.20;;;;;;5049712;28;20013;-77
2021/06/12 11:40:22;;;;;;;6.65;2.78;;;18.10;64.70;;;;;;5067596;28;20411;-77
2021/06/12 11:42:48;;;;;;;7.72;2.50;;;18.70;62.30;;;;;;5053608;28;20025;-76
2021/06/12 11:45:16;;;;;;;9.80;2.78;;;18.60;59.50;;;;;;5067948;28;20127;-77
2021/06/12 11:47:41;;;;;;;6.05;2.15;;;18.10;59.70;;;;;;5068120;28;20005;-77
2021/06/12 11:50:08;;;;;;;7.90;2.70;;;17.90;60.40;;;;;;5063516;28;20030;-78
2021/06/12 11:52:41;;;;;;;6.72;2.50;;;17.80;61.40;;;;;;5072048;28;20072;-78
2021/06/12 11:55:13;;;;;;;6.50;2.50;;;17.50;62.40;;;;;;5055923;28;20008;-77
2021/06/12 11:57:42;;;;;;;;;;;17.50;64.80;;;;;;5087655;28;20009;-77
2021/06/12 12:00:34;;;;;;;9.50;2.78;;;17.40;63.60;;;;;;5087222;28;19940;-77
2021/06/12 12:03:04;;;;;;;6.50;2.38;;;17.30;62.60;;;;;;5070251;28;20027;-76
2021/06/12 12:05:33;;;;;;;9.15;2.65;;;17.70;61.70;;;;;;5086538;28;20286;-78
2021/06/12 12:07:59;;;;;;;7.68;2.90;;;17.80;61.60;;;;;;5070379;28;20012;-77
2021/06/12 12:10:26;;;;;;;7.63;2.42;;;18.10;59.60;;;;;;5086388;28;20062;-77
2021/06/12 12:12:52;;;;;;;8.93;3.30;;;18.20;60.70;;;;;;5069850;28;20264;-78
2021/06/12 12:15:41;;;;;;;8.13;2.80;;;18.20;62.50;;;;;;5069919;28;20028;-77
2021/06/12 12:18:09;;;;;;;8.32;3.00;;;18.00;61.40;;;;;;5086203;28;20028;-77
2021/06/12 12:20:40;;;;;;;8.57;2.70;;;18.20;59.80;;;;;;5086143;28;20084;-77
2021/06/12 12:23:28;;;;;;;8.23;2.67;;;18.20;60.50;;;;;;5086015;28;20021;-77
2021/06/12 12:26:10;;;;;;;8.10;2.60;;;17.70;62.90;;;;;;5069593;28;20008;-77
2021/06/12 12:28:56;;;;;;;7.43;2.50;;;17.40;64.40;;;;;;5084748;28;20061;-77
2021/06/12 12:31:22;;;;;;;4.72;2.10;;;17.80;65.10;;;;;;5069213;28;20011;-77
2021/06/12 12:33:49;;;;;;;7.13;2.95;;;18.30;62.80;;;;;;5069594;28;20013;-77
2021/06/12 12:36:15;;;;;;;4.75;2.10;;;18.40;62.40;;;;;;5066230;28;20020;-77
2021/06/12 12:38:41;;;;;;;8.73;3.13;;;18.50;62.80;;;;;;5049653;28;20048;-77
2021/06/12 12:41:08;;;;;;;8.13;2.75;;;18.30;60.90;;;;;;5049255;28;20084;-77
2021/06/12 12:43:35;;;;;;;7.55;2.90;;;18.10;62.30;;;;;;5066888;28;20021;-76
2021/06/12 12:46:04;;;;;;;11.77;2.47;;;17.80;63.90;;;;;;5064716;28;20079;-77
2021/06/12 12:48:29;;;;;;;8.85;2.75;;;17.70;65.10;;;;;;5053700;28;20040;-77
2021/06/12 12:50:55;;;;;;;7.75;2.58;;;18.20;64.80;;;;;;5069984;28;20269;-77